Time;durP1;ratioP1;P1;durP2;ratioP2;P2;SDS_P1;SDS_P2;PMS_P1;PMS_P2;Temp;Humidity;BMP_temperature;BMP_pressure;BME280_temperature;BME280_humidity;BME280_pressure;Samples;Min_cycle;Max_cycle;Signal;HPM_P1;HPM_P2
2022/08/12 00:44:43;;;;;;;;;2.33;2.33;;;;;23.22;56.14;98977.28;4909496;28;102340;-79
2022/08/12 00:47:13;;;;;;;;;2.00;2.00;;;;;23.23;56.50;98976.19;4913111;28;104305;-79
2022/08/12 00:49:52;;;;;;;;;2.00;2.00;;;;;23.23;56.35;98979.78;4913751;28;102383;-79
2022/08/12 00:52:20;;;;;;;;;2.00;2.00;;;;;23.22;56.50;98986.38;4891221;28;102370;-79
2022/08/12 00:54:51;;;;;;;;;1.00;1.00;;;;;23.22;56.27;98991.06;4916613;28;102418;-79
2022/08/12 00:57:19;;;;;;;;;3.00;2.00;;;;;23.22;56.27;98982.78;4922350;28;109107;-79
2022/08/12 00:59:55;;;;;;;;;2.00;2.00;;;;;23.22;56.44;98988.31;4910313;28;102032;-79
2022/08/12 01:02:25;;;;;;;;;1.00;1.00;;;;;23.21;56.33;98987.47;4906352;28;102532;-79
2022/08/12 01:13:14;;;;;;;;;2.00;2.00;;;;;23.18;56.66;98988.03;4907459;28;103364;-79
2022/08/12 01:15:48;;;;;;;;;2.00;2.00;;;;;23.19;56.42;98986.13;4917197;28;102922;-80
2022/08/12 01:18:16;;;;;;;;;2.00;2.00;;;;;23.17;56.61;98991.91;4907132;28;104200;-79
2022/08/12 01:20:52;;;;;;;;;2.00;2.00;;;;;23.19;56.68;98986.91;4912584;28;102256;-79
2022/08/12 01:23:42;;;;;;;;;3.67;2.67;;;;;23.13;56.84;98980.59;4902416;28;102552;-79
2022/08/12 01:26:12;;;;;;;;;2.33;2.33;;;;;23.12;56.85;98978.91;4925069;28;102596;-79
2022/08/12 01:28:39;;;;;;;;;1.00;1.00;;;;;23.12;56.79;98989.94;4912053;28;104180;-79
2022/08/12 01:31:06;;;;;;;;;1.00;1.00;;;;;23.12;56.67;98986.38;4908759;28;103713;-79
2022/08/12 01:33:44;;;;;;;;;1.00;1.00;;;;;23.12;56.60;98989.13;4895879;28;103862;-80
2022/08/12 01:36:11;;;;;;;;;2.00;2.00;;;;;23.12;56.74;98984.44;4890681;28;103899;-80
2022/08/12 01:38:38;;;;;;;;;2.00;2.00;;;;;23.12;56.69;98989.13;4904393;28;104221;-79
2022/08/12 01:41:05;;;;;;;;;2.00;2.00;;;;;23.11;56.78;98977.25;4908167;28;103115;-79
2022/08/12 01:43:33;;;;;;;;;1.67;1.67;;;;;23.11;56.55;98980.00;4895061;28;102401;-78
2022/08/12 01:46:52;;;;;;;;;1.33;1.33;;;;;23.10;56.64;98978.34;4912815;28;102665;-79
2022/08/12 01:49:49;;;;;;;;;1.00;1.00;;;;;23.10;56.71;98972.00;4853442;28;108671;-80
2022/08/12 01:52:55;;;;;;;;;3.00;2.00;;;;;23.09;56.60;98967.59;4833965;28;102481;-80
2022/08/12 01:55:27;;;;;;;;;2.00;2.00;;;;;23.08;56.99;98972.28;4902183;28;102122;-79
2022/08/12 01:58:27;;;;;;;;;2.00;2.00;;;;;23.07;56.68;98972.56;4912038;28;102229;-80
2022/08/12 02:01:02;;;;;;;;;2.00;2.00;;;;;23.08;56.65;98960.44;4908088;28;108835;-79
2022/08/12 02:12:56;;;;;;;;;2.00;2.00;;;;;23.02;57.06;98951.31;4903026;28;108877;-79
2022/08/12 02:15:49;;;;;;;;;1.33;1.33;;;;;22.98;57.39;98949.38;4910463;28;102161;-79
2022/08/12 02:18:52;;;;;;;;;2.33;1.67;;;;;22.95;57.29;98953.50;4901825;28;102267;-80
2022/08/12 02:21:31;;;;;;;;;2.00;2.00;;;;;22.95;56.97;98956.28;4915299;28;102529;-79
2022/08/12 02:23:58;;;;;;;;;2.00;2.00;;;;;22.97;56.85;98951.28;4910113;28;109055;-79
2022/08/12 02:26:25;;;;;;;;;1.00;1.00;;;;;22.96;57.06;98957.09;4912567;28;102482;-80
2022/08/12 02:28:52;;;;;;;;;2.00;2.00;;;;;22.96;57.22;98946.91;4910998;28;102315;-79
2022/08/12 02:31:19;;;;;;;;;2.00;2.00;;;;;22.96;57.09;98952.41;4914287;28;102716;-79
2022/08/12 02:33:47;;;;;;;;;2.00;2.00;;;;;22.97;57.01;98940.25;4908991;28;108654;-79
2022/08/12 02:36:15;;;;;;;;;2.00;2.00;;;;;22.97;56.80;98948.53;4909927;28;102177;-79
2022/08/12 02:38:42;;;;;;;;;1.67;1.67;;;;;22.97;57.04;98948.53;4908115;28;102438;-79
2022/08/12 02:41:10;;;;;;;;;1.33;1.33;;;;;22.97;56.95;98942.19;4906967;28;102427;-79
2022/08/12 02:43:48;;;;;;;;;2.00;2.00;;;;;22.95;56.90;98939.72;4915421;28;104162;-79
2022/08/12 02:46:18;;;;;;;;;2.67;2.00;;;;;22.95;57.02;98945.25;4906184;28;102700;-79
2022/08/12 02:48:46;;;;;;;;;3.00;2.33;;;;;22.96;57.11;98944.16;4914466;28;102099;-79
2022/08/12 02:51:18;;;;;;;;;1.00;1.00;;;;;22.94;57.23;98940.00;4909671;28;102576;-79
2022/08/12 02:53:47;;;;;;;;;1.67;1.67;;;;;22.97;56.99;98945.78;4909944;28;104365;-79
2022/08/12 02:56:36;;;;;;;;;1.33;1.33;;;;;22.94;57.06;98943.56;4909880;28;102311;-79
2022/08/12 02:59:05;;;;;;;;;1.67;1.67;;;;;22.92;57.27;98940.25;4917444;28;102541;-80
2022/08/12 03:01:34;;;;;;;;;1.00;1.00;;;;;22.92;57.18;98939.44;4907589;28;102646;-80
2022/08/12 03:04:08;;;;;;;;;3.00;3.00;;;;;22.87;57.37;98947.72;4915989;28;104135;-80
2022/08/12 03:07:09;;;;;;;;;2.00;2.00;;;;;22.86;57.31;98949.63;4917327;28;103772;-79
2022/08/12 03:09:41;;;;;;;;;2.00;2.00;;;;;22.85;57.38;98950.72;4911020;28;102261;-79
2022/08/12 03:12:30;;;;;;;;;2.33;2.00;;;;;22.87;57.30;98943.03;4916403;28;102800;-78
2022/08/12 03:15:03;;;;;;;;;2.00;2.00;;;;;22.86;57.16;98935.84;4891276;28;104291;-79
2022/08/12 03:17:42;;;;;;;;;1.67;1.00;;;;;22.88;57.09;98930.88;4919809;28;102245;-79
2022/08/12 03:20:15;;;;;;;;;1.00;1.00;;;;;22.90;57.06;98936.97;4907826;28;102438;-79
2022/08/12 03:22:45;;;;;;;;;2.00;2.00;;;;;22.89;56.95;98928.94;4910770;28;102353;-79
2022/08/12 03:25:17;;;;;;;;;2.00;2.00;;;;;22.87;57.14;98926.47;4915373;28;104077;-79
2022/08/12 03:27:54;;;;;;;;;1.00;1.00;;;;;22.88;57.08;98935.56;4914205;28;102303;-79
2022/08/12 03:30:26;;;;;;;;;1.00;1.00;;;;;22.83;57.10;98936.38;4905710;28;102521;-79
2022/08/12 03:32:54;;;;;;;;;1.00;1.00;;;;;22.83;57.52;98941.88;4921882;28;102104;-79
2022/08/12 03:35:26;;;;;;;;;3.00;2.00;;;;;22.82;57.35;98933.91;4910051;28;104065;-79
2022/08/12 03:38:10;;;;;;;;;2.00;2.00;;;;;22.82;57.25;98940.25;4917903;28;102400;-79
2022/08/12 04:01:10;;;;;;;;;1.67;1.67;;;;;22.69;57.88;98932.47;4927595;28;102874;-79
2022/08/12 04:03:53;;;;;;;;;2.00;2.00;;;;;22.71;57.60;98926.69;4913677;28;102546;-79
2022/08/12 04:06:44;;;;;;;;;1.00;1.00;;;;;22.73;57.40;98930.84;4896335;28;102565;-79
2022/08/12 04:09:12;;;;;;;;;2.00;2.00;;;;;22.74;57.44;98926.16;4897001;28;109178;-80
2022/08/12 04:14:28;;;;;;;;;2.00;1.67;;;;;22.77;57.27;98931.97;4908247;28;102797;-79
2022/08/12 04:16:56;;;;;;;;;1.00;1.00;;;;;22.74;57.13;98924.22;4903504;28;102470;-79
2022/08/12 04:19:24;;;;;;;;;1.00;1.00;;;;;22.75;57.26;98927.81;4911340;28;104053;-77
2022/08/12 04:21:54;;;;;;;;;1.33;1.33;;;;;22.72;57.46;98937.47;4906508;28;102387;-79
2022/08/12 04:24:30;;;;;;;;;1.00;0.33;;;;;22.73;57.36;98939.13;4916780;28;103114;-79
2022/08/12 04:26:58;;;;;;;;;1.33;1.33;;;;;22.73;57.46;98941.88;4911981;28;102243;-79
2022/08/12 04:29:25;;;;;;;;;2.00;2.00;;;;;22.73;57.26;98952.91;4905190;28;104100;-79
2022/08/12 04:32:12;;;;;;;;;1.33;1.33;;;;;22.73;57.43;98958.41;4914501;28;102615;-80
2022/08/12 04:34:40;;;;;;;;;1.00;1.00;;;;;22.72;57.51;98958.69;4910196;28;102548;-79
2022/08/12 04:37:07;;;;;;;;;2.67;2.00;;;;;22.69;57.53;98962.78;4908345;28;102342;-79
2022/08/12 04:39:34;;;;;;;;;1.67;1.67;;;;;22.71;57.58;98968.88;4910491;28;104241;-80
2022/08/12 04:42:01;;;;;;;;;1.33;1.33;;;;;22.68;57.55;98967.47;4913581;28;102757;-79
2022/08/12 04:44:30;;;;;;;;;1.67;1.67;;;;;22.67;57.50;98959.47;4918043;28;102659;-80
2022/08/12 04:46:57;;;;;;;;;2.00;2.00;;;;;22.65;57.71;98973.50;4912696;28;102309;-79
2022/08/12 04:49:24;;;;;;;;;3.33;1.67;;;;;22.65;57.52;98965.25;4915094;28;104051;-78
2022/08/12 04:51:52;;;;;;;;;1.33;1.33;;;;;22.67;57.44;98968.56;4910069;28;102188;-79
2022/08/12 04:54:26;;;;;;;;;1.33;1.00;;;;;22.72;57.41;98964.19;4906190;28;106782;-79
2022/08/12 04:56:53;;;;;;;;;1.00;1.00;;;;;22.72;57.32;98956.75;4917026;28;102346;-79
2022/08/12 04:59:33;;;;;;;;;2.00;2.00;;;;;22.70;57.44;98947.91;4916419;28;104364;-79
2022/08/12 05:02:17;;;;;;;;;1.00;1.00;;;;;22.71;57.28;98955.09;4917921;28;102129;-80
2022/08/12 05:04:51;;;;;;;;;2.00;2.00;;;;;22.71;57.45;98955.09;4908583;28;102531;-79
2022/08/12 05:07:19;;;;;;;;;3.00;3.00;;;;;22.73;57.15;98949.31;4934726;28;102291;-79
2022/08/12 05:09:46;;;;;;;;;2.00;2.00;;;;;22.69;57.30;98947.09;4911314;28;109239;-79
2022/08/12 05:12:35;;;;;;;;;2.00;2.00;;;;;22.68;57.41;98950.09;4910319;28;102281;-79
2022/08/12 05:15:06;;;;;;;;;1.33;1.33;;;;;22.68;57.39;98961.97;4913504;28;102461;-79
2022/08/12 05:17:54;;;;;;;;;2.00;2.00;;;;;22.67;57.48;98954.78;4915006;28;103062;-80
2022/08/12 05:20:21;;;;;;;;;1.67;1.67;;;;;22.66;57.48;98953.13;4916908;28;104079;-79
2022/08/12 05:22:49;;;;;;;;;2.00;2.00;;;;;22.66;57.65;98960.56;4913337;28;102413;-79
2022/08/12 05:25:23;;;;;;;;;1.00;1.00;;;;;22.68;57.39;98958.38;4911390;28;102398;-80
2022/08/12 05:27:50;;;;;;;;;2.00;1.00;;;;;22.68;57.28;98966.66;4917885;28;102417;-79
2022/08/12 05:30:25;;;;;;;;;1.33;1.33;;;;;22.67;57.42;98968.56;4907492;28;108948;-78
2022/08/12 05:32:54;;;;;;;;;2.00;2.00;;;;;22.65;57.45;98969.91;4906070;28;102697;-80
2022/08/12 05:35:26;;;;;;;;;1.33;1.00;;;;;22.63;57.46;98972.13;4910583;28;102562;-80
2022/08/12 05:40:40;;;;;;;;;1.00;1.00;;;;;22.65;57.35;98961.66;4910012;28;104466;-79
2022/08/12 05:43:07;;;;;;;;;1.00;1.00;;;;;22.68;56.90;98955.63;4913205;28;102383;-80
2022/08/12 05:45:34;;;;;;;;;1.00;1.00;;;;;22.64;56.88;98949.00;4902346;28;102121;-80
2022/08/12 05:48:01;;;;;;;;;1.67;1.67;;;;;22.66;56.82;98955.88;4905422;28;101998;-80
2022/08/12 05:50:28;;;;;;;;;1.33;1.00;;;;;22.70;56.63;98953.44;4906240;28;104195;-80
2022/08/12 05:52:55;;;;;;;;;1.33;1.33;;;;;22.72;56.65;98948.50;4904109;28;102246;-79
2022/08/12 05:55:22;;;;;;;;;1.00;1.00;;;;;22.72;56.85;98954.00;4905356;28;102280;-80
2022/08/12 05:57:56;;;;;;;;;1.00;1.00;;;;;22.72;56.81;98956.75;4909953;28;102559;-79
2022/08/12 06:00:24;;;;;;;;;2.00;2.00;;;;;22.73;56.91;98957.59;4903444;28;104068;-79
2022/08/12 06:03:01;;;;;;;;;2.00;2.00;;;;;22.72;56.74;98962.28;4914878;28;102360;-79
2022/08/12 06:05:29;;;;;;;;;2.00;1.00;;;;;22.74;56.92;98967.53;4917336;28;102552;-80
2022/08/12 06:07:56;;;;;;;;;2.00;2.00;;;;;22.74;56.62;98965.56;4915199;28;102366;-80
2022/08/12 06:10:29;;;;;;;;;1.67;1.00;;;;;22.76;56.84;98962.56;4914369;28;104182;-78
2022/08/12 06:13:04;;;;;;;;;1.00;1.00;;;;;22.74;56.77;98962.00;4916901;28;102282;-80
2022/08/12 06:15:33;;;;;;;;;1.00;1.00;;;;;22.74;56.85;98964.78;4914980;28;102213;-79
2022/08/12 06:18:05;;;;;;;;;2.00;2.00;;;;;22.75;56.71;98967.22;4911108;28;102382;-79
2022/08/12 06:20:40;;;;;;;;;2.00;2.00;;;;;22.77;56.60;98969.72;4908383;28;104248;-80
2022/08/12 06:23:09;;;;;;;;;1.00;1.00;;;;;22.74;56.87;98962.00;4912755;28;102023;-79
2022/08/12 06:25:36;;;;;;;;;1.00;0.67;;;;;22.76;56.62;98960.63;4911566;28;109817;-79
2022/08/12 06:28:13;;;;;;;;;1.67;1.33;;;;;22.78;56.52;98968.63;4924532;28;102336;-79
2022/08/12 06:30:40;;;;;;;;;1.67;1.00;;;;;22.80;56.54;98963.66;4891162;28;104082;-79
2022/08/12 06:33:07;;;;;;;;;1.00;1.00;;;;;22.82;56.48;98967.81;4905202;28;102261;-79
2022/08/12 06:35:48;;;;;;;;;0.33;0.33;;;;;22.85;56.35;98966.44;4917259;28;102184;-79
2022/08/12 06:38:17;;;;;;;;;1.33;1.33;;;;;22.86;56.26;98966.19;4921853;28;102209;-78
2022/08/12 06:43:31;;;;;;;;;0.33;0.33;;;;;22.88;56.17;98960.38;4910745;28;102479;-79
2022/08/12 06:46:22;;;;;;;;;1.00;1.00;;;;;22.89;56.38;98967.56;4917168;28;102475;-79
2022/08/12 06:48:55;;;;;;;;;1.00;1.00;;;;;22.91;56.34;98959.84;4910871;28;102372;-78
2022/08/12 06:51:27;;;;;;;;;1.00;1.00;;;;;22.91;56.32;98966.19;4917693;28;108748;-78
2022/08/12 06:53:55;;;;;;;;;1.00;1.00;;;;;22.94;56.21;98973.09;4919865;28;102243;-80
2022/08/12 06:56:22;;;;;;;;;1.00;1.00;;;;;22.94;56.39;98968.41;4918267;28;102342;-80
2022/08/12 06:59:11;;;;;;;;;1.67;1.67;;;;;22.93;56.11;98963.97;4914408;28;102567;-79
2022/08/12 07:01:38;;;;;;;;;1.33;1.33;;;;;22.96;56.34;98974.47;4921475;28;104124;-79
2022/08/12 07:04:05;;;;;;;;;1.00;1.00;;;;;22.95;56.05;98964.53;4917473;28;102146;-80
2022/08/12 07:06:54;;;;;;;;;2.00;1.00;;;;;22.97;56.34;98973.34;4912636;28;102045;-80
2022/08/12 07:09:21;;;;;;;;;1.00;1.00;;;;;22.97;56.30;98965.09;4917899;28;105032;-80
2022/08/12 07:12:18;;;;;;;;;1.00;0.00;;;;;22.98;56.25;98972.28;4910544;28;105501;-79
2022/08/12 07:14:49;;;;;;;;;1.33;1.00;;;;;22.99;56.16;98971.16;4910709;28;102373;-79
2022/08/12 07:17:16;;;;;;;;;0.67;0.67;;;;;23.00;56.26;98966.50;4918866;28;102338;-79
2022/08/12 07:19:45;;;;;;;;;1.33;1.00;;;;;23.01;56.07;98966.19;4916158;28;102284;-79
2022/08/12 07:22:14;;;;;;;;;0.00;0.00;;;;;23.00;55.99;98966.50;4912555;28;104149;-79
2022/08/12 07:24:42;;;;;;;;;1.00;1.00;;;;;23.02;55.98;98958.75;4906297;28;102692;-79
2022/08/12 07:27:09;;;;;;;;;1.00;1.00;;;;;23.02;56.15;98958.75;4913908;28;102367;-79
2022/08/12 07:29:36;;;;;;;;;1.33;1.33;;;;;23.03;56.14;98961.25;4911170;28;102208;-79
2022/08/12 07:32:23;;;;;;;;;0.00;0.00;;;;;23.03;56.23;98946.63;4914780;28;110080;-78
2022/08/12 07:34:55;;;;;;;;;1.00;1.00;;;;;22.97;55.96;98937.50;4919763;28;102210;-78
2022/08/12 07:37:22;;;;;;;;;1.00;1.00;;;;;23.02;55.53;98956.81;4914596;28;102276;-78
2022/08/12 07:39:49;;;;;;;;;1.00;1.00;;;;;23.00;55.08;98947.19;4919966;28;102637;-79
2022/08/12 07:42:27;;;;;;;;;1.00;1.00;;;;;23.03;55.19;98952.13;4913608;28;108791;-78
2022/08/12 07:44:55;;;;;;;;;1.67;1.00;;;;;23.03;55.00;98952.97;4910275;28;102141;-78
2022/08/12 07:47:23;;;;;;;;;1.00;1.00;;;;;23.04;54.90;98954.63;4920675;28;102107;-78
2022/08/12 07:49:50;;;;;;;;;1.00;1.00;;;;;23.05;55.42;98953.53;4920731;28;102375;-78
2022/08/12 07:52:34;;;;;;;;;1.00;1.00;;;;;23.07;55.60;98950.50;4917050;28;108929;-78
2022/08/12 07:55:01;;;;;;;;;1.00;1.00;;;;;23.08;55.42;98944.72;4916845;28;102448;-78
2022/08/12 07:57:31;;;;;;;;;0.67;0.67;;;;;23.08;55.76;98950.22;4912660;28;102649;-78
2022/08/12 08:00:02;;;;;;;;;1.00;1.00;;;;;23.09;55.56;98946.38;4920378;28;102512;-79
2022/08/12 08:02:34;;;;;;;;;1.00;1.00;;;;;23.07;55.93;98956.84;4915137;28;104385;-79
2022/08/12 08:05:02;;;;;;;;;2.00;1.00;;;;;23.08;55.98;98954.91;4905023;28;103979;-79
2022/08/12 08:07:29;;;;;;;;;1.00;1.00;;;;;23.06;56.29;98944.13;4913698;28;102348;-79
2022/08/12 08:09:58;;;;;;;;;1.33;1.33;;;;;23.11;55.96;98946.06;4903002;28;102223;-79
2022/08/12 08:15:14;;;;;;;;;1.00;1.00;;;;;23.13;55.86;98953.00;4918984;28;102281;-79
2022/08/12 08:18:02;;;;;;;;;0.00;0.00;;;;;23.14;55.93;98949.09;4906264;28;102682;-79
2022/08/12 08:20:40;;;;;;;;;1.00;0.00;;;;;23.16;55.95;98942.50;4918923;28;102328;-78
2022/08/12 08:23:09;;;;;;;;;2.00;2.00;;;;;23.16;56.06;98950.78;4912788;28;104353;-78
2022/08/12 08:25:37;;;;;;;;;2.00;2.00;;;;;23.18;55.89;98951.34;4910038;28;102160;-79
2022/08/12 08:28:09;;;;;;;;;1.67;1.00;;;;;23.19;55.91;98947.50;4912045;28;102223;-78
2022/08/12 08:30:39;;;;;;;;;2.00;2.00;;;;;23.20;55.83;98951.88;4912328;28;102339;-78
2022/08/12 08:33:09;;;;;;;;;1.00;1.00;;;;;23.20;55.70;98943.59;4915172;28;103942;-78
2022/08/12 08:35:48;;;;;;;;;1.00;1.00;;;;;23.24;55.84;98939.19;4918824;28;102564;-79
2022/08/12 08:38:20;;;;;;;;;1.00;1.00;;;;;23.24;55.68;98939.19;4919043;28;102194;-79
2022/08/12 08:44:06;;;;;;;;;1.67;1.00;;;;;23.28;55.56;98943.09;4908608;28;110121;-79
2022/08/12 08:46:36;;;;;;;;;1.00;1.00;;;;;23.27;55.58;98935.91;4905457;28;102571;-78
2022/08/12 08:49:04;;;;;;;;;2.00;2.00;;;;;23.27;55.29;98941.41;4905729;28;103420;-78
2022/08/12 08:51:32;;;;;;;;;1.00;1.00;;;;;23.28;55.48;98943.09;4914173;28;105685;-79
2022/08/12 08:53:59;;;;;;;;;1.67;1.67;;;;;23.30;55.58;98946.38;4899810;28;104094;-79
2022/08/12 08:56:28;;;;;;;;;1.00;1.00;;;;;23.29;55.71;98940.03;4917043;28;102183;-80
2022/08/12 08:58:56;;;;;;;;;1.00;1.00;;;;;23.30;55.71;98938.09;4914202;28;103362;-78
2022/08/12 09:01:24;;;;;;;;;1.00;1.00;;;;;23.29;55.73;98948.31;4906678;28;102612;-79
2022/08/12 09:03:51;;;;;;;;;1.67;1.00;;;;;23.31;55.59;98945.28;4911189;28;104118;-79
2022/08/12 09:06:40;;;;;;;;;1.67;1.67;;;;;23.31;55.73;98953.56;4895469;28;103664;-79
2022/08/12 09:09:10;;;;;;;;;1.33;1.33;;;;;23.31;55.53;98953.56;4917666;28;102643;-79
2022/08/12 09:14:42;;;;;;;;;1.00;1.00;;;;;23.31;55.83;98943.34;4910521;28;108980;-79
2022/08/12 09:17:19;;;;;;;;;1.00;1.00;;;;;23.32;55.55;98947.78;4911105;28;102389;-79
2022/08/12 09:19:47;;;;;;;;;2.00;2.00;;;;;23.33;55.79;98952.16;4917310;28;104495;-79
2022/08/12 09:22:23;;;;;;;;;1.00;1.00;;;;;23.33;55.79;98946.66;4910426;28;102633;-78
2022/08/12 09:25:00;;;;;;;;;1.33;1.33;;;;;23.34;55.86;98953.00;4906599;28;104128;-78
2022/08/12 09:27:32;;;;;;;;;1.00;1.00;;;;;23.35;55.74;98949.16;4908350;28;102502;-78
2022/08/12 09:30:20;;;;;;;;;1.00;1.00;;;;;23.35;55.68;98957.41;4919849;28;102522;-78
2022/08/12 09:33:07;;;;;;;;;2.00;2.00;;;;;23.36;55.54;98956.31;4913646;28;103059;-79
2022/08/12 09:35:45;;;;;;;;;2.00;1.00;;;;;23.37;55.67;98958.78;4905825;28;104214;-79
2022/08/12 09:38:32;;;;;;;;;1.33;1.00;;;;;23.37;55.54;98964.31;4911239;28;102155;-79
2022/08/12 09:41:02;;;;;;;;;2.00;2.00;;;;;23.37;55.23;98953.28;4916969;28;102632;-78
2022/08/12 09:47:01;;;;;;;;;1.00;1.00;;;;;23.40;55.44;98951.91;4909044;28;111110;-79
2022/08/12 09:49:36;;;;;;;;;2.00;2.00;;;;;23.40;55.15;98951.91;4908261;28;102259;-78
2022/08/12 09:52:10;;;;;;;;;1.00;1.00;;;;;23.41;55.36;98953.56;4909984;28;102230;-79
2022/08/12 09:54:37;;;;;;;;;2.00;2.00;;;;;23.39;55.20;98947.47;4908972;28;102821;-79
2022/08/12 09:57:10;;;;;;;;;1.00;1.00;;;;;23.44;55.30;98953.03;4909471;28;104264;-79
2022/08/12 09:59:57;;;;;;;;;1.67;1.67;;;;;23.44;55.39;98951.13;4911556;28;102403;-79
2022/08/12 10:03:05;;;;;;;;;2.00;2.00;;;;;23.44;55.25;98942.84;4907947;28;103195;-79
2022/08/12 10:05:35;;;;;;;;;2.33;2.00;;;;;23.44;55.40;98942.84;4912466;28;105826;-79
2022/08/12 10:08:23;;;;;;;;;1.00;1.00;;;;;23.45;55.27;98946.44;4911215;28;110113;-79
2022/08/12 10:13:47;;;;;;;;;1.33;1.33;;;;;23.45;55.48;98933.47;4907473;28;102413;-79
2022/08/12 10:16:18;;;;;;;;;2.00;2.00;;;;;23.44;55.41;98929.03;4915084;28;102271;-78
2022/08/12 10:19:00;;;;;;;;;1.00;1.00;;;;;23.46;55.43;98923.25;4905860;28;109063;-79
2022/08/12 10:21:35;;;;;;;;;2.00;1.00;;;;;23.45;55.28;98914.13;4897927;28;102239;-78
2022/08/12 10:24:08;;;;;;;;;1.67;1.33;;;;;23.47;55.11;98916.59;4908953;28;102389;-79
2022/08/12 10:29:37;;;;;;;;;2.00;2.00;;;;;23.47;54.96;98919.34;4911734;28;108814;-78
2022/08/12 10:32:24;;;;;;;;;2.00;2.00;;;;;23.47;55.20;98913.84;4910272;28;102501;-80
2022/08/12 10:35:13;;;;;;;;;1.00;1.00;;;;;23.47;55.15;98911.06;4899067;28;102694;-78
2022/08/12 10:37:40;;;;;;;;;2.00;2.00;;;;;23.49;55.19;98917.16;4907161;28;102419;-78
2022/08/12 10:40:29;;;;;;;;;2.00;2.00;;;;;23.49;55.16;98901.44;4899722;28;110086;-79
2022/08/12 10:45:47;;;;;;;;;2.67;2.00;;;;;23.51;55.16;98899.19;4908981;28;102526;-79
2022/08/12 10:48:19;;;;;;;;;2.33;2.00;;;;;23.52;55.14;98898.09;4905812;28;102522;-80
2022/08/12 10:51:02;;;;;;;;;2.67;2.67;;;;;23.53;54.85;98898.94;4906680;28;108944;-80
2022/08/12 10:53:50;;;;;;;;;1.00;1.00;;;;;23.55;54.51;98893.94;4914211;28;102749;-79
2022/08/12 10:56:18;;;;;;;;;2.33;2.33;;;;;23.55;54.45;98894.78;4907694;28;102374;-79
2022/08/12 10:58:47;;;;;;;;;1.00;1.00;;;;;23.57;54.58;98897.28;4906062;28;102325;-80
2022/08/12 11:01:15;;;;;;;;;2.00;2.00;;;;;23.57;54.46;98891.75;4909348;28;105172;-79
2022/08/12 11:04:04;;;;;;;;;2.00;2.00;;;;;23.58;54.55;98885.13;4916206;28;105710;-79
2022/08/12 11:06:55;;;;;;;;;2.00;2.00;;;;;23.60;54.32;98882.91;4912535;28;102456;-78
2022/08/12 11:09:44;;;;;;;;;2.33;2.00;;;;;23.60;54.28;98885.66;4910012;28;102382;-79
2022/08/12 11:12:28;;;;;;;;;3.00;2.00;;;;;23.61;54.26;98881.81;4910530;28;108758;-78
2022/08/12 11:15:16;;;;;;;;;3.00;3.00;;;;;23.63;54.40;98876.00;4908755;28;102535;-79
2022/08/12 11:17:49;;;;;;;;;2.00;2.00;;;;;23.62;54.29;98875.19;4908417;28;102190;-79
2022/08/12 11:20:22;;;;;;;;;2.00;2.00;;;;;23.62;54.42;98872.41;4916399;28;102316;-79
2022/08/12 11:23:00;;;;;;;;;1.33;1.00;;;;;23.62;54.30;98866.91;4916711;28;109334;-78
2022/08/12 11:25:30;;;;;;;;;3.00;3.00;;;;;23.64;54.39;98870.19;4916290;28;102016;-78
2022/08/12 11:28:17;;;;;;;;;3.00;2.33;;;;;23.64;54.28;98878.47;4915675;28;102674;-78
2022/08/12 11:31:00;;;;;;;;;2.00;2.00;;;;;23.64;54.28;98875.72;4918679;28;102377;-79
2022/08/12 11:33:27;;;;;;;;;2.00;2.00;;;;;23.65;54.14;98873.78;4909971;28;103322;-78
2022/08/12 11:36:14;;;;;;;;;3.67;3.00;;;;;23.65;54.13;98876.53;4914670;28;102177;-79
2022/08/12 11:38:41;;;;;;;;;1.67;1.67;;;;;23.65;54.29;98874.59;4912000;28;102228;-79
2022/08/12 11:41:17;;;;;;;;;2.33;2.33;;;;;23.66;54.08;98870.75;4917470;28;102836;-79
2022/08/12 11:43:58;;;;;;;;;2.33;2.33;;;;;23.68;54.04;98873.25;4914462;28;108978;-79
2022/08/12 11:46:45;;;;;;;;;3.00;3.00;;;;;23.68;54.01;98874.06;4911971;28;102239;-80
2022/08/12 11:49:18;;;;;;;;;2.00;2.00;;;;;23.70;54.00;98862.72;4918801;28;102513;-80
2022/08/12 11:51:57;;;;;;;;;3.33;3.33;;;;;23.71;54.06;98867.97;4908618;28;102202;-79
2022/08/12 11:54:24;;;;;;;;;2.67;2.67;;;;;23.73;54.12;98876.00;4911474;28;105028;-79
2022/08/12 11:56:56;;;;;;;;;2.67;2.67;;;;;23.74;54.15;98874.88;4915070;28;102113;-79
2022/08/12 11:59:25;;;;;;;;;2.00;2.00;;;;;23.76;54.10;98870.72;4915561;28;102415;-78
2022/08/12 12:02:12;;;;;;;;;1.00;1.00;;;;;23.77;53.84;98864.13;4916092;28;102094;-79
2022/08/12 12:04:46;;;;;;;;;3.33;3.00;;;;;23.78;53.68;98871.25;4917018;28;104010;-78
2022/08/12 12:07:21;;;;;;;;;3.00;3.00;;;;;23.79;53.54;98870.16;4919546;28;102373;-79
2022/08/12 12:10:08;;;;;;;;;3.00;3.00;;;;;23.81;53.52;98864.38;4911989;28;103362;-79
2022/08/12 12:12:36;;;;;;;;;3.00;3.00;;;;;23.82;53.43;98858.53;4914460;28;102195;-79
2022/08/12 12:15:07;;;;;;;;;2.00;2.00;;;;;23.83;53.48;98868.50;4910941;28;104404;-79
2022/08/12 12:17:36;;;;;;;;;2.67;2.00;;;;;23.84;53.62;98870.16;4908565;28;102218;-79
2022/08/12 12:20:08;;;;;;;;;2.00;2.00;;;;;23.85;53.78;98860.78;4904334;28;102761;-79
2022/08/12 12:22:36;;;;;;;;;3.67;3.67;;;;;23.83;53.65;98856.63;4903894;28;102584;-79
2022/08/12 12:25:03;;;;;;;;;3.00;3.00;;;;;23.87;53.28;98855.78;4903001;28;102937;-78
2022/08/12 12:27:50;;;;;;;;;2.67;2.67;;;;;23.89;53.38;98855.50;4919622;28;102104;-78
2022/08/12 12:30:31;;;;;;;;;2.00;2.00;;;;;23.89;53.61;98850.81;4898491;28;102525;-79
2022/08/12 12:32:58;;;;;;;;;3.00;3.00;;;;;23.91;53.26;98851.34;4920452;28;102233;-80
2022/08/12 12:35:25;;;;;;;;;2.00;2.00;;;;;23.93;53.50;98846.38;4911267;28;104482;-78
2022/08/12 12:38:13;;;;;;;;;3.00;2.67;;;;;23.95;53.21;98848.88;4911967;28;102151;-79
2022/08/12 12:40:42;;;;;;;;;3.33;3.33;;;;;23.97;53.42;98841.09;4912590;28;102208;-79
2022/08/12 12:43:13;;;;;;;;;1.67;1.67;;;;;23.97;53.58;98847.47;4916421;28;102135;-79
2022/08/12 12:45:41;;;;;;;;;2.00;2.00;;;;;23.99;53.40;98838.91;4910795;28;104229;-79
2022/08/12 12:48:13;;;;;;;;;2.67;2.67;;;;;24.00;53.32;98838.59;4906727;28;102050;-79
2022/08/12 12:50:46;;;;;;;;;3.00;3.00;;;;;24.03;53.11;98826.16;4908738;28;102299;-78
2022/08/12 12:53:21;;;;;;;;;3.00;3.00;;;;;24.05;53.16;98831.41;4913430;28;102606;-79
2022/08/12 12:56:16;;;;;;;;;2.00;2.00;;;;;24.07;53.16;98829.19;4901873;28;110138;-79
2022/08/12 12:58:43;;;;;;;;;2.00;2.00;;;;;24.08;53.10;98825.31;4910349;28;102233;-79
2022/08/12 13:01:12;;;;;;;;;2.67;2.67;;;;;24.10;53.15;98818.38;4919373;28;102336;-78
2022/08/12 13:03:55;;;;;;;;;3.00;3.00;;;;;24.12;53.16;98829.16;4914693;28;102658;-79
2022/08/12 13:06:28;;;;;;;;;2.33;2.33;;;;;24.13;52.84;98811.50;4911736;28;109137;-79
2022/08/12 13:08:58;;;;;;;;;3.00;3.00;;;;;24.16;52.75;98813.72;4911511;28;102760;-78
2022/08/12 13:11:32;;;;;;;;;2.00;2.00;;;;;24.18;52.86;98805.97;4915884;28;103289;-80
2022/08/12 13:14:14;;;;;;;;;3.00;3.00;;;;;24.20;52.94;98806.50;4912129;28;102672;-79
2022/08/12 13:16:55;;;;;;;;;3.00;3.00;;;;;24.22;52.88;98801.53;4907000;28;109050;-79
2022/08/12 13:19:23;;;;;;;;;4.00;3.00;;;;;24.25;52.78;98804.53;4906069;28;102671;-79
2022/08/12 13:22:16;;;;;;;;;2.00;2.00;;;;;24.24;52.93;98789.06;4905990;28;102468;-80
2022/08/12 13:24:52;;;;;;;;;3.00;3.00;;;;;24.28;52.68;98792.91;4908166;28;102572;-80
2022/08/12 13:27:49;;;;;;;;;3.33;3.00;;;;;24.30;52.86;98789.88;4913543;28;108176;-79
2022/08/12 13:30:19;;;;;;;;;2.00;2.00;;;;;24.31;52.98;98792.34;4895812;28;102160;-80
2022/08/12 13:32:52;;;;;;;;;3.00;3.00;;;;;24.33;52.66;98789.28;4913996;28;102407;-79
2022/08/12 13:35:25;;;;;;;;;2.33;2.33;;;;;24.35;52.69;98793.44;4915868;28;102331;-79
2022/08/12 13:38:12;;;;;;;;;3.67;2.67;;;;;24.36;52.60;98794.25;4913091;28;105293;-80
2022/08/12 13:40:39;;;;;;;;;2.00;2.00;;;;;24.39;52.83;98782.63;4920222;28;102564;-80
2022/08/12 13:43:06;;;;;;;;;2.33;2.33;;;;;24.41;52.66;98783.97;4910638;28;102371;-79
2022/08/12 13:45:39;;;;;;;;;2.00;2.00;;;;;24.47;52.79;98795.00;4929527;28;102890;-79
2022/08/12 13:48:07;;;;;;;;;5.00;3.67;;;;;24.50;52.73;98781.44;4907384;28;104161;-79